Time;durP1;ratioP1;P1;durP2;ratioP2;P2;SDS_P1;SDS_P2;PMS_P1;PMS_P2;Temp;Humidity;BMP_temperature;BMP_pressure;BME280_temperature;BME280_humidity;BME280_pressure;Samples;Min_cycle;Max_cycle;Signal;HPM_P1;HPM_P2
2024/01/01 00:00:46;;;;;;;66.82;39.67;;;8.30;99.90;;;;;;5017715;28;20031;-74
2024/01/01 00:03:12;;;;;;;116.63;67.90;;;8.30;99.90;;;;;;4949915;28;20034;-74
2024/01/01 00:05:37;;;;;;;82.60;45.30;;;8.20;99.90;;;;;;4949914;28;20492;-74
2024/01/01 00:08:03;;;;;;;95.13;51.05;;;8.20;99.90;;;;;;4950861;29;20034;-74
2024/01/01 00:10:29;;;;;;;91.10;50.83;;;8.20;99.90;;;;;;4950253;29;20035;-74
2024/01/01 00:12:54;;;;;;;85.20;48.83;;;8.20;99.90;;;;;;4949853;29;20038;-74
2024/01/01 00:15:20;;;;;;;115.43;65.10;;;8.20;99.90;;;;;;4950125;28;20031;-71
2024/01/01 00:17:46;;;;;;;105.28;59.00;;;8.20;99.90;;;;;;4948643;29;20079;-71
2024/01/01 00:20:11;;;;;;;77.93;44.05;;;8.10;99.90;;;;;;4944454;28;20345;-71
2024/01/01 00:22:37;;;;;;;130.38;78.03;;;8.10;99.90;;;;;;4950403;29;20077;-71
2024/01/01 00:25:03;;;;;;;97.15;55.15;;;8.10;99.90;;;;;;4941780;28;20027;-71
2024/01/01 00:27:31;;;;;;;70.68;39.50;;;8.10;99.90;;;;;;4942039;29;20035;-71
2024/01/01 00:29:57;;;;;;;56.78;27.00;;;8.10;99.90;;;;;;4949254;28;20039;-71
2024/01/01 00:32:23;;;;;;;49.53;27.58;;;8.00;99.90;;;;;;4946047;29;20269;-71
2024/01/01 00:34:48;;;;;;;51.03;26.75;;;8.10;99.90;;;;;;4940976;28;20057;-71
2024/01/01 00:37:14;;;;;;;65.22;36.67;;;8.00;99.90;;;;;;4950105;28;20118;-71
2024/01/01 00:39:39;;;;;;;75.95;39.88;;;8.00;99.90;;;;;;4942046;28;20034;-71
2024/01/01 00:42:05;;;;;;;43.85;20.83;;;8.00;99.90;;;;;;4935746;28;20532;-72
2024/01/01 00:44:34;;;;;;;48.15;26.02;;;8.00;99.90;;;;;;4941029;29;20034;-72
2024/01/01 00:46:59;;;;;;;41.30;19.50;;;8.00;99.90;;;;;;4934968;29;20379;-72
2024/01/01 00:49:25;;;;;;;48.25;25.13;;;8.00;99.90;;;;;;4943759;28;20027;-72
2024/01/01 00:51:50;;;;;;;43.97;22.15;;;8.00;99.90;;;;;;4943215;29;20091;-72
2024/01/01 00:54:16;;;;;;;45.33;19.50;;;8.00;99.90;;;;;;4949406;28;20035;-72
2024/01/01 00:56:42;;;;;;;36.10;15.10;;;8.00;99.90;;;;;;4950620;28;20031;-72
2024/01/01 00:59:07;;;;;;;36.88;14.23;;;8.00;99.90;;;;;;4950154;28;20039;-72
2024/01/01 01:01:33;;;;;;;41.55;19.60;;;8.00;99.90;;;;;;4939510;28;20096;-72
2024/01/01 01:03:59;;;;;;;40.42;18.63;;;8.10;99.90;;;;;;4946353;28;20030;-72
2024/01/01 01:06:24;;;;;;;52.72;29.08;;;8.10;99.90;;;;;;4949914;28;20480;-72
2024/01/01 01:08:50;;;;;;;28.52;10.05;;;8.10;99.90;;;;;;4949696;28;20440;-72
2024/01/01 01:11:15;;;;;;;37.03;14.57;;;8.10;99.90;;;;;;4950304;29;20031;-72
2024/01/01 01:13:41;;;;;;;41.20;17.05;;;8.10;99.90;;;;;;4946559;28;20550;-72
2024/01/01 01:16:06;;;;;;;43.63;17.45;;;8.10;99.90;;;;;;4948738;28;20026;-72
2024/01/01 01:18:32;;;;;;;39.00;16.67;;;8.10;99.90;;;;;;4942691;28;20023;-72
2024/01/01 01:20:57;;;;;;;35.92;16.85;;;8.10;99.90;;;;;;4943322;28;20436;-72
2024/01/01 01:23:23;;;;;;;32.53;11.25;;;8.10;99.90;;;;;;4949488;28;20046;-72
2024/01/01 01:25:49;;;;;;;33.33;12.80;;;8.20;99.90;;;;;;4940873;29;20024;-72
2024/01/01 01:28:22;;;;;;;31.38;11.02;;;8.20;99.90;;;;;;4946024;28;20031;-72
2024/01/01 01:30:47;;;;;;;27.63;9.68;;;8.10;99.90;;;;;;4949477;28;20397;-72
2024/01/01 01:33:13;;;;;;;23.23;7.53;;;8.20;99.90;;;;;;4949606;28;20062;-72
2024/01/01 01:35:39;;;;;;;20.33;6.50;;;8.20;99.90;;;;;;4948573;28;20024;-71
2024/01/01 01:38:04;;;;;;;30.35;13.13;;;8.10;99.90;;;;;;4946657;29;20043;-72
2024/01/01 01:40:30;;;;;;;34.28;11.48;;;8.10;99.90;;;;;;4948835;28;20031;-72
2024/01/01 01:42:55;;;;;;;31.77;9.88;;;8.10;99.90;;;;;;4949297;28;20347;-72
2024/01/01 01:45:22;;;;;;;32.15;10.02;;;8.00;99.90;;;;;;4936918;28;20476;-72
2024/01/01 01:47:48;;;;;;;24.50;6.95;;;8.00;99.90;;;;;;4941722;29;20023;-72
2024/01/01 01:50:15;;;;;;;26.10;6.43;;;8.00;99.90;;;;;;4944677;28;20039;-72
2024/01/01 01:52:43;;;;;;;31.33;11.98;;;8.00;99.90;;;;;;4944023;28;20016;-72
2024/01/01 01:55:11;;;;;;;19.45;5.38;;;7.90;99.90;;;;;;4947914;28;20027;-72
2024/01/01 01:57:38;;;;;;;22.35;5.65;;;7.90;99.90;;;;;;4946695;28;20028;-72
2024/01/01 02:00:05;;;;;;;20.55;5.25;;;7.90;99.90;;;;;;4934822;28;20027;-72
2024/01/01 02:02:34;;;;;;;22.27;5.65;;;7.90;99.90;;;;;;4943948;28;20027;-72
2024/01/01 02:05:00;;;;;;;22.73;6.80;;;7.90;99.90;;;;;;4945859;28;20542;-72
2024/01/01 02:07:26;;;;;;;27.02;6.18;;;7.90;99.90;;;;;;4949355;28;20105;-72
2024/01/01 02:09:51;;;;;;;26.45;5.85;;;7.90;99.90;;;;;;4941377;28;20059;-72
2024/01/01 02:12:17;;;;;;;27.38;6.43;;;7.90;99.90;;;;;;4943737;28;20080;-72
2024/01/01 02:14:43;;;;;;;22.80;6.68;;;7.90;99.90;;;;;;4947707;28;20030;-72
2024/01/01 02:17:09;;;;;;;23.98;5.75;;;7.90;99.90;;;;;;4947570;28;20054;-72
2024/01/01 02:19:34;;;;;;;27.20;5.60;;;7.90;99.90;;;;;;4948859;28;20049;-71
2024/01/01 02:22:00;;;;;;;22.90;6.55;;;7.90;99.90;;;;;;5025198;28;20028;-72
2024/01/01 02:24:25;;;;;;;27.15;5.78;;;8.00;99.90;;;;;;4942837;28;20502;-72
2024/01/01 02:26:51;;;;;;;22.95;6.00;;;8.00;99.90;;;;;;4936457;28;20023;-72
2024/01/01 02:29:17;;;;;;;23.13;5.22;;;8.00;99.90;;;;;;5023995;28;20122;-74
2024/01/01 02:31:43;;;;;;;25.75;5.47;;;8.00;99.90;;;;;;4948019;28;20057;-74
2024/01/01 02:34:09;;;;;;;24.17;4.90;;;8.00;99.90;;;;;;4949609;28;20030;-71
2024/01/01 02:36:37;;;;;;;25.90;4.38;;;8.00;99.90;;;;;;4947868;28;20027;-74
2024/01/01 02:39:04;;;;;;;29.58;4.95;;;8.00;99.90;;;;;;4932626;28;20151;-74
2024/01/01 02:41:34;;;;;;;24.33;4.50;;;8.00;99.90;;;;;;4944619;28;20026;-72
2024/01/01 02:44:00;;;;;;;25.27;4.85;;;8.00;99.90;;;;;;4949534;28;20395;-72
2024/01/01 02:46:25;;;;;;;28.85;4.75;;;8.10;99.90;;;;;;4944502;29;20090;-72
2024/01/01 02:48:51;;;;;;;27.38;5.38;;;8.10;99.90;;;;;;4948183;28;20476;-72
2024/01/01 02:51:16;;;;;;;25.58;5.45;;;8.10;99.90;;;;;;4947611;28;20102;-72
2024/01/01 02:53:42;;;;;;;31.05;5.90;;;8.10;99.90;;;;;;4944134;29;20031;-72
2024/01/01 02:56:25;;;;;;;28.15;5.30;;;8.10;99.90;;;;;;4948021;28;20031;-72
2024/01/01 02:58:53;;;;;;;33.25;6.32;;;8.10;99.90;;;;;;4948426;28;20030;-72
2024/01/01 03:01:18;;;;;;;32.17;5.72;;;8.10;99.90;;;;;;4948976;28;20403;-72
2024/01/01 03:03:44;;;;;;;30.05;4.90;;;8.10;99.90;;;;;;4943722;28;20433;-72
2024/01/01 03:06:10;;;;;;;32.17;5.40;;;8.10;99.90;;;;;;5034660;28;20051;-72
2024/01/01 03:08:37;;;;;;;25.63;5.03;;;8.10;99.90;;;;;;4950800;28;20331;-72
2024/01/01 03:11:06;;;;;;;31.23;4.45;;;8.10;99.90;;;;;;4950661;28;20062;-72
2024/01/01 03:13:32;;;;;;;27.00;4.78;;;8.10;99.90;;;;;;4948538;29;20102;-72
2024/01/01 03:15:59;;;;;;;32.22;5.13;;;8.20;99.90;;;;;;4950659;28;20081;-72
2024/01/01 03:18:25;;;;;;;34.75;5.03;;;8.20;99.90;;;;;;4951098;28;20071;-72
2024/01/01 03:20:50;;;;;;;27.27;5.25;;;8.20;99.90;;;;;;4951796;29;20069;-72
2024/01/01 03:23:16;;;;;;;35.65;5.38;;;8.20;99.90;;;;;;5034203;28;20118;-72
2024/01/01 03:25:41;;;;;;;28.88;4.82;;;8.30;99.90;;;;;;4952203;28;20031;-72
2024/01/01 03:28:07;;;;;;;29.63;4.75;;;8.20;99.90;;;;;;4947894;28;20024;-72
2024/01/01 03:30:33;;;;;;;26.38;4.70;;;8.20;99.90;;;;;;4949336;28;20543;-71
2024/01/01 03:32:58;;;;;;;26.08;5.43;;;8.20;99.90;;;;;;4950267;28;20075;-71
2024/01/01 03:35:24;;;;;;;30.30;5.10;;;8.20;99.90;;;;;;4951579;28;20110;-71
2024/01/01 03:37:49;;;;;;;27.88;5.03;;;8.20;99.90;;;;;;4951291;28;20567;-71
2024/01/01 03:40:15;;;;;;;35.60;5.88;;;8.20;99.90;;;;;;4946680;28;20321;-72
2024/01/01 03:42:40;;;;;;;30.90;5.72;;;8.20;99.90;;;;;;4951389;29;20085;-72
2024/01/01 03:45:07;;;;;;;34.20;4.60;;;8.20;99.90;;;;;;4947612;28;20107;-72
2024/01/01 03:47:33;;;;;;;35.80;5.22;;;8.20;99.90;;;;;;4948062;28;20034;-72
2024/01/01 03:49:59;;;;;;;36.35;5.70;;;8.30;99.90;;;;;;4951140;28;20035;-72
2024/01/01 03:52:25;;;;;;;30.30;5.18;;;8.30;99.90;;;;;;4948553;28;20044;-72
2024/01/01 03:54:51;;;;;;;34.95;5.40;;;8.20;99.90;;;;;;4950931;28;20038;-72
2024/01/01 03:57:16;;;;;;;31.17;5.32;;;8.30;99.90;;;;;;4941780;29;20030;-72
2024/01/01 03:59:42;;;;;;;33.65;5.00;;;8.30;99.90;;;;;;4951341;28;20042;-72
2024/01/01 04:02:09;;;;;;;33.03;4.60;;;8.30;99.90;;;;;;4946083;28;20028;-72
2024/01/01 04:04:36;;;;;;;28.20;4.78;;;8.30;99.90;;;;;;4951177;28;20114;-72
2024/01/01 04:07:01;;;;;;;27.85;4.80;;;8.30;99.90;;;;;;4951456;28;20034;-72
2024/01/01 04:09:27;;;;;;;34.38;5.35;;;8.20;99.90;;;;;;4945944;28;20484;-72
2024/01/01 04:11:52;;;;;;;33.33;4.25;;;8.20;99.90;;;;;;4947870;28;20161;-72
2024/01/01 04:14:18;;;;;;;35.90;5.43;;;8.30;99.90;;;;;;4939963;29;20020;-72
2024/01/01 04:16:43;;;;;;;31.98;5.03;;;8.30;99.90;;;;;;4941953;28;20060;-72
2024/01/01 04:19:09;;;;;;;28.13;4.45;;;8.30;99.90;;;;;;4951243;28;20027;-72
2024/01/01 04:21:39;;;;;;;31.25;4.10;;;8.20;99.90;;;;;;4950564;28;20463;-71
2024/01/01 04:24:09;;;;;;;33.90;5.03;;;8.30;99.90;;;;;;4942974;28;20108;-72
2024/01/01 04:26:36;;;;;;;32.17;4.90;;;8.30;99.90;;;;;;4946107;28;20510;-72
2024/01/01 04:29:02;;;;;;;30.00;4.68;;;8.30;99.90;;;;;;4946383;28;20506;-72
2024/01/01 04:31:28;;;;;;;30.17;5.10;;;8.30;99.90;;;;;;4948175;28;20019;-72
2024/01/01 04:33:54;;;;;;;23.48;4.15;;;8.30;99.90;;;;;;4950731;29;20035;-72
2024/01/01 04:36:20;;;;;;;34.40;4.75;;;8.30;99.90;;;;;;4949424;28;20074;-72
2024/01/01 04:38:46;;;;;;;33.90;4.80;;;8.30;99.90;;;;;;4951108;29;20054;-72
2024/01/01 04:41:12;;;;;;;31.27;5.07;;;8.40;99.90;;;;;;4950619;29;20449;-72
2024/01/01 04:43:40;;;;;;;23.45;3.88;;;8.30;99.90;;;;;;4938681;28;20468;-72
2024/01/01 04:46:07;;;;;;;24.42;4.43;;;8.40;99.90;;;;;;4942223;28;20024;-72
2024/01/01 04:48:34;;;;;;;25.77;4.38;;;8.40;99.90;;;;;;4947167;28;20391;-72
2024/01/01 04:51:00;;;;;;;29.95;4.15;;;8.40;99.90;;;;;;4950805;28;20063;-72
2024/01/01 04:53:25;;;;;;;28.67;4.07;;;8.40;99.90;;;;;;4950863;28;20184;-72
2024/01/01 04:55:51;;;;;;;30.75;4.38;;;8.40;99.90;;;;;;4950169;28;20035;-72
2024/01/01 04:58:17;;;;;;;31.92;4.22;;;8.40;99.90;;;;;;4939718;28;20366;-72
2024/01/01 05:00:42;;;;;;;32.33;4.22;;;8.40;99.90;;;;;;4935902;28;20536;-72
2024/01/01 05:03:08;;;;;;;33.25;4.55;;;8.40;99.90;;;;;;4939862;28;20042;-72
2024/01/01 05:05:33;;;;;;;32.38;4.63;;;8.40;99.90;;;;;;5016685;28;20023;-72
2024/01/01 05:07:59;;;;;;;37.22;4.43;;;8.40;99.90;;;;;;4949643;28;20427;-72
2024/01/01 05:10:24;;;;;;;30.27;4.30;;;8.40;99.90;;;;;;4949860;29;20032;-72
2024/01/01 05:12:50;;;;;;;35.80;5.10;;;8.40;99.90;;;;;;4950568;28;20027;-72
2024/01/01 05:15:16;;;;;;;28.95;4.78;;;8.40;99.90;;;;;;4949320;28;20499;-72
2024/01/01 05:17:41;;;;;;;20.83;3.85;;;8.40;99.90;;;;;;4950310;28;20054;-72
2024/01/01 05:20:07;;;;;;;30.27;4.20;;;8.40;99.90;;;;;;4949894;28;20036;-72
2024/01/01 05:22:33;;;;;;;26.45;4.85;;;8.30;99.90;;;;;;4947773;28;20489;-72
2024/01/01 05:24:59;;;;;;;28.00;4.13;;;8.30;99.90;;;;;;4948596;28;20023;-72
2024/01/01 05:27:25;;;;;;;26.15;3.90;;;8.30;99.90;;;;;;4948346;28;20118;-72
2024/01/01 05:29:51;;;;;;;22.85;3.53;;;8.30;99.90;;;;;;4944373;28;20030;-72
2024/01/01 05:32:16;;;;;;;23.45;3.97;;;8.30;99.90;;;;;;4946902;28;20491;-72
2024/01/01 05:34:42;;;;;;;24.63;4.03;;;8.30;99.90;;;;;;4943828;28;20149;-72
2024/01/01 05:37:08;;;;;;;24.02;4.10;;;8.30;99.90;;;;;;4949050;28;20051;-72
2024/01/01 05:39:34;;;;;;;30.27;4.40;;;8.30;99.90;;;;;;4949614;28;20430;-72
2024/01/01 05:42:00;;;;;;;27.13;3.92;;;8.30;99.90;;;;;;4949700;28;20034;-72
2024/01/01 05:44:25;;;;;;;22.70;3.42;;;8.30;99.90;;;;;;4940968;28;20048;-72
2024/01/01 05:46:51;;;;;;;18.75;3.67;;;8.30;99.90;;;;;;4947105;28;20020;-72
2024/01/01 05:49:18;;;;;;;21.02;3.60;;;8.30;99.90;;;;;;4943043;28;20027;-71
2024/01/01 05:51:44;;;;;;;19.27;3.63;;;8.20;99.90;;;;;;4938547;28;20051;-71
2024/01/01 05:54:10;;;;;;;23.73;3.70;;;8.30;99.90;;;;;;4944465;28;20012;-72
2024/01/01 05:56:36;;;;;;;25.63;4.18;;;8.40;99.90;;;;;;4947619;28;20632;-72
2024/01/01 05:59:02;;;;;;;25.52;4.03;;;8.40;99.90;;;;;;4947700;29;20035;-72
2024/01/01 06:01:27;;;;;;;28.23;4.10;;;8.40;99.90;;;;;;4943135;28;20031;-72
2024/01/01 06:03:53;;;;;;;26.83;3.75;;;8.40;99.90;;;;;;4943071;28;20028;-72
2024/01/01 06:06:18;;;;;;;19.98;2.95;;;8.40;99.90;;;;;;4944403;28;20431;-72
2024/01/01 06:08:44;;;;;;;18.50;3.97;;;8.40;99.90;;;;;;4943623;28;20032;-72
2024/01/01 06:11:10;;;;;;;22.60;3.28;;;8.40;99.90;;;;;;4938850;28;20032;-72
2024/01/01 06:13:35;;;;;;;20.58;3.17;;;8.40;99.90;;;;;;4942913;28;20081;-72
2024/01/01 06:16:03;;;;;;;22.95;3.35;;;8.40;99.90;;;;;;4949351;29;20011;-72
2024/01/01 06:18:28;;;;;;;30.50;3.65;;;8.40;99.90;;;;;;4949486;28;20069;-71
2024/01/01 06:20:54;;;;;;;19.55;4.05;;;8.40;99.90;;;;;;4945237;28;20035;-72
2024/01/01 06:23:20;;;;;;;24.27;3.22;;;8.40;99.90;;;;;;4942001;28;20027;-72
2024/01/01 06:25:45;;;;;;;18.30;3.13;;;8.40;99.90;;;;;;4945074;28;20031;-72
2024/01/01 06:28:11;;;;;;;18.80;3.10;;;8.50;99.90;;;;;;4946627;28;20028;-71
2024/01/01 06:30:36;;;;;;;24.63;3.55;;;8.50;99.90;;;;;;4940507;28;20038;-72
2024/01/01 06:33:03;;;;;;;16.63;2.67;;;8.50;99.90;;;;;;4942991;28;20024;-71
2024/01/01 06:35:30;;;;;;;25.65;2.92;;;8.50;99.90;;;;;;4941996;28;20570;-71
2024/01/01 06:37:59;;;;;;;19.40;3.08;;;8.50;99.90;;;;;;4934959;28;20435;-71
2024/01/01 06:40:25;;;;;;;14.50;2.67;;;8.60;99.90;;;;;;4947199;28;20031;-71
2024/01/01 06:42:51;;;;;;;15.63;2.08;;;8.50;99.90;;;;;;4942574;28;20031;-71
2024/01/01 06:45:17;;;;;;;21.98;3.40;;;8.50;99.90;;;;;;4948605;28;20041;-71
2024/01/01 06:47:43;;;;;;;15.98;2.75;;;8.50;99.90;;;;;;4949835;28;20015;-71
2024/01/01 06:50:09;;;;;;;16.88;3.05;;;8.50;99.90;;;;;;4947711;28;20031;-71
2024/01/01 06:52:34;;;;;;;13.95;2.75;;;8.50;99.90;;;;;;4940435;28;20031;-71
2024/01/01 06:55:00;;;;;;;18.55;3.75;;;8.50;99.90;;;;;;4941580;29;20023;-71
2024/01/01 06:57:25;;;;;;;18.40;3.10;;;8.60;99.90;;;;;;4943665;28;20024;-72
2024/01/01 06:59:51;;;;;;;16.77;2.83;;;8.60;99.90;;;;;;4935039;28;20023;-71
2024/01/01 07:02:17;;;;;;;21.42;2.88;;;8.60;99.90;;;;;;4941665;28;20027;-72
2024/01/01 07:04:42;;;;;;;24.27;3.47;;;8.70;99.90;;;;;;4946305;28;20038;-71
2024/01/01 07:07:08;;;;;;;12.52;2.45;;;8.70;99.90;;;;;;4941477;28;20023;-72
2024/01/01 07:09:34;;;;;;;13.00;2.72;;;8.70;99.90;;;;;;4937286;28;20661;-71
2024/01/01 07:12:18;;;;;;;14.13;2.33;;;8.70;99.90;;;;;;4937218;28;20045;-72
2024/01/01 07:14:43;;;;;;;18.50;2.75;;;8.70;99.90;;;;;;4944493;28;20602;-71
2024/01/01 07:17:09;;;;;;;18.27;3.00;;;8.60;99.90;;;;;;4944807;28;20129;-72
2024/01/01 07:19:35;;;;;;;14.98;2.88;;;8.60;99.90;;;;;;4943964;28;20523;-72
2024/01/01 07:22:01;;;;;;;12.63;2.47;;;8.60;99.90;;;;;;4948190;28;20041;-72
2024/01/01 07:24:26;;;;;;;15.48;2.75;;;8.60;99.90;;;;;;4948699;28;20431;-71
2024/01/01 07:26:52;;;;;;;18.33;3.15;;;8.60;99.90;;;;;;4948170;29;20028;-71
2024/01/01 07:29:17;;;;;;;15.73;2.20;;;8.60;99.90;;;;;;4948774;28;20027;-71
2024/01/01 07:31:43;;;;;;;15.52;3.00;;;8.60;99.90;;;;;;4948507;28;20027;-71
2024/01/01 07:34:09;;;;;;;20.02;2.20;;;8.60;99.90;;;;;;4948826;28;20058;-72
2024/01/01 07:36:35;;;;;;;21.00;2.78;;;8.60;99.90;;;;;;4940813;28;20028;-71
2024/01/01 07:39:00;;;;;;;17.60;2.60;;;8.60;99.90;;;;;;4941625;28;20031;-71
2024/01/01 07:41:26;;;;;;;15.77;2.92;;;8.60;99.90;;;;;;5013710;28;20027;-71
2024/01/01 07:43:51;;;;;;;14.32;2.67;;;8.60;99.90;;;;;;4943806;28;20047;-71
2024/01/01 07:46:17;;;;;;;15.50;2.50;;;8.60;99.90;;;;;;4946042;28;20037;-71
2024/01/01 07:48:43;;;;;;;15.27;2.58;;;8.70;99.90;;;;;;4947615;28;20114;-71
2024/01/01 07:51:08;;;;;;;14.18;2.75;;;8.70;99.90;;;;;;4944109;28;20354;-71
2024/01/01 07:53:34;;;;;;;12.55;2.03;;;8.70;99.90;;;;;;4946859;28;20073;-71
2024/01/01 07:56:04;;;;;;;11.05;2.10;;;8.80;99.90;;;;;;4949072;28;20051;-71
2024/01/01 07:58:30;;;;;;;14.77;2.45;;;8.80;99.90;;;;;;4948549;29;20032;-71
2024/01/01 08:00:56;;;;;;;19.08;2.58;;;8.80;99.90;;;;;;4950005;28;20485;-71
2024/01/01 08:03:22;;;;;;;10.23;2.38;;;8.90;99.90;;;;;;4950184;28;20024;-71
2024/01/01 08:05:47;;;;;;;20.08;2.72;;;8.90;99.90;;;;;;4950131;28;20099;-72
2024/01/01 08:08:13;;;;;;;12.27;2.17;;;8.90;99.90;;;;;;4948191;28;20545;-73
2024/01/01 08:10:39;;;;;;;13.48;2.40;;;8.80;99.90;;;;;;4947521;29;20020;-74
2024/01/01 08:13:04;;;;;;;15.60;2.33;;;8.90;99.90;;;;;;4949903;28;20020;-73
2024/01/01 08:15:30;;;;;;;12.70;1.92;;;8.90;99.90;;;;;;4949495;29;20377;-73
2024/01/01 08:17:55;;;;;;;14.13;2.13;;;8.90;99.90;;;;;;4949185;28;20051;-73
2024/01/01 08:20:21;;;;;;;14.00;2.30;;;8.80;99.90;;;;;;4949409;29;20031;-73
2024/01/01 08:22:47;;;;;;;12.10;1.83;;;8.80;99.90;;;;;;4949039;29;20027;-73
2024/01/01 08:25:13;;;;;;;17.75;2.47;;;8.90;99.90;;;;;;4950451;28;20091;-73
2024/01/01 08:27:38;;;;;;;11.07;2.20;;;8.80;99.90;;;;;;4945724;28;20098;-73
2024/01/01 08:30:06;;;;;;;8.77;1.73;;;8.80;99.90;;;;;;4945446;28;20046;-73
2024/01/01 08:32:32;;;;;;;6.05;1.00;;;8.90;99.90;;;;;;4937138;28;20034;-73
2024/01/01 08:34:58;;;;;;;6.28;1.00;;;8.80;99.90;;;;;;4946908;28;20040;-73
2024/01/01 08:37:24;;;;;;;8.40;1.55;;;8.70;99.90;;;;;;4950145;29;20523;-73
2024/01/01 08:39:49;;;;;;;5.70;1.23;;;8.60;99.90;;;;;;4949819;28;20027;-73
2024/01/01 08:42:15;;;;;;;6.53;1.30;;;8.50;99.90;;;;;;4949864;28;20027;-73
2024/01/01 08:44:40;;;;;;;7.05;1.30;;;8.50;99.90;;;;;;4950099;28;20042;-73
2024/01/01 08:47:06;;;;;;;12.20;1.42;;;8.50;99.90;;;;;;4944037;29;20700;-73
2024/01/01 08:49:31;;;;;;;7.78;1.50;;;8.50;99.90;;;;;;4949478;28;20363;-73
2024/01/01 08:51:57;;;;;;;11.43;1.83;;;8.50;99.90;;;;;;4949538;29;20023;-73
2024/01/01 08:54:23;;;;;;;10.23;1.65;;;8.40;99.90;;;;;;4949784;28;20011;-73
2024/01/01 08:56:49;;;;;;;11.45;1.60;;;8.40;99.90;;;;;;4949371;28;20114;-74
2024/01/01 08:59:17;;;;;;;11.23;1.80;;;8.40;99.90;;;;;;4948689;28;20553;-74
2024/01/01 09:01:45;;;;;;;12.25;1.80;;;8.40;99.90;;;;;;4944499;28;20135;-73
2024/01/01 09:04:10;;;;;;;10.05;1.80;;;8.40;99.90;;;;;;4949409;29;20490;-73
2024/01/01 09:06:36;;;;;;;10.30;1.98;;;8.40;99.90;;;;;;4947874;28;20027;-73
2024/01/01 09:09:01;;;;;;;17.92;2.28;;;8.50;99.90;;;;;;4943401;28;20031;-73
2024/01/01 09:11:27;;;;;;;17.58;2.95;;;8.50;99.90;;;;;;4946457;28;20122;-73
2024/01/01 09:13:52;;;;;;;12.98;2.33;;;8.60;99.90;;;;;;4943569;29;20027;-74
2024/01/01 09:16:18;;;;;;;17.98;2.40;;;8.60;99.90;;;;;;4946384;28;20602;-74
2024/01/01 09:18:44;;;;;;;10.38;1.77;;;8.70;99.90;;;;;;4949176;29;20020;-73
2024/01/01 09:21:15;;;;;;;11.45;2.03;;;8.60;99.90;;;;;;4949761;28;20023;-73
2024/01/01 09:23:41;;;;;;;15.65;2.30;;;8.60;99.90;;;;;;5013116;28;20038;-73
2024/01/01 09:26:07;;;;;;;11.70;2.40;;;8.70;99.90;;;;;;4949436;29;20451;-73
2024/01/01 09:28:33;;;;;;;15.68;2.50;;;8.70;99.90;;;;;;5014877;28;20373;-72
2024/01/01 09:30:59;;;;;;;16.90;2.47;;;8.70;99.90;;;;;;4942301;28;20031;-72
2024/01/01 09:33:25;;;;;;;16.52;2.40;;;8.70;99.90;;;;;;4949699;29;20106;-72
2024/01/01 09:35:52;;;;;;;13.85;2.10;;;8.70;99.90;;;;;;4950116;28;20081;-72
2024/01/01 09:38:18;;;;;;;13.95;1.75;;;8.80;99.90;;;;;;4944333;29;20481;-72
2024/01/01 09:40:44;;;;;;;9.85;1.73;;;8.80;99.90;;;;;;4950424;28;20077;-72
2024/01/01 09:43:17;;;;;;;13.40;2.35;;;8.80;99.90;;;;;;4939154;28;20024;-73
2024/01/01 09:45:46;;;;;;;10.07;1.90;;;8.80;99.90;;;;;;4940059;28;20022;-72
2024/01/01 09:48:11;;;;;;;11.73;1.95;;;8.90;99.90;;;;;;4943953;28;20020;-72
2024/01/01 09:50:37;;;;;;;14.02;2.45;;;8.90;99.90;;;;;;4948072;28;20030;-72
2024/01/01 09:53:03;;;;;;;15.23;2.58;;;8.90;99.90;;;;;;4943297;28;20027;-72
2024/01/01 09:55:30;;;;;;;13.80;2.38;;;9.00;99.90;;;;;;5029661;28;20030;-73
2024/01/01 09:57:55;;;;;;;18.77;2.42;;;9.00;99.90;;;;;;5014508;28;20020;-73
2024/01/01 10:00:22;;;;;;;15.02;2.20;;;9.00;99.90;;;;;;4944047;29;20038;-73
2024/01/01 10:02:47;;;;;;;17.10;3.17;;;9.00;99.90;;;;;;5010909;28;20046;-72
2024/01/01 10:05:14;;;;;;;12.90;2.20;;;9.00;99.90;;;;;;4949515;28;20396;-72
2024/01/01 10:07:39;;;;;;;12.95;1.90;;;9.00;99.90;;;;;;4949624;28;20023;-72
2024/01/01 10:10:06;;;;;;;17.25;2.50;;;9.00;99.90;;;;;;4948839;28;20046;-72
2024/01/01 10:12:34;;;;;;;14.27;1.88;;;9.00;99.90;;;;;;4943884;28;20035;-72
2024/01/01 10:15:00;;;;;;;18.38;2.33;;;9.00;99.90;;;;;;4949405;28;20387;-72
2024/01/01 10:17:26;;;;;;;11.23;1.88;;;9.00;99.90;;;;;;4946017;29;20047;-72
2024/01/01 10:19:58;;;;;;;13.43;1.85;;;9.10;99.90;;;;;;4949228;28;20031;-72
2024/01/01 10:22:31;;;;;;;16.83;2.10;;;9.10;99.90;;;;;;4942074;28;20735;-72
2024/01/01 10:25:11;;;;;;;9.82;2.47;;;9.10;99.90;;;;;;4949084;28;20054;-72
2024/01/01 10:27:38;;;;;;;11.88;2.42;;;9.20;99.90;;;;;;4947408;28;20030;-72
2024/01/01 10:30:04;;;;;;;14.90;2.65;;;9.20;99.90;;;;;;4948960;28;20023;-72
2024/01/01 10:32:30;;;;;;;12.45;2.28;;;9.30;99.90;;;;;;4947714;28;20031;-72
2024/01/01 10:34:57;;;;;;;14.50;2.35;;;9.30;99.90;;;;;;4948624;28;20031;-72
2024/01/01 10:37:25;;;;;;;16.67;1.90;;;9.30;99.90;;;;;;4948819;28;20035;-72
2024/01/01 10:39:52;;;;;;;16.27;2.25;;;9.40;99.90;;;;;;4943615;28;20511;-72
2024/01/01 10:42:18;;;;;;;16.05;2.40;;;9.50;99.90;;;;;;4942919;28;20024;-72
2024/01/01 10:44:43;;;;;;;17.10;2.50;;;9.50;99.90;;;;;;4948945;28;20115;-72
2024/01/01 10:47:10;;;;;;;14.90;2.70;;;9.50;99.90;;;;;;4940874;28;20023;-72
2024/01/01 10:49:39;;;;;;;17.48;2.53;;;9.60;99.90;;;;;;4943377;28;20066;-72
2024/01/01 10:52:22;;;;;;;15.77;2.63;;;9.60;99.90;;;;;;4947699;28;20031;-72
2024/01/01 10:54:50;;;;;;;12.88;2.13;;;9.60;99.90;;;;;;4948775;28;20055;-73
2024/01/01 10:57:34;;;;;;;15.32;2.65;;;9.70;99.90;;;;;;4938403;28;20165;-73
2024/01/01 11:00:36;;;;;;;16.00;3.00;;;9.70;99.90;;;;;;4948547;28;20035;-73
2024/01/01 11:03:02;;;;;;;16.95;2.90;;;9.70;99.90;;;;;;4946727;28;20020;-73
2024/01/01 11:05:33;;;;;;;19.23;3.10;;;9.70;99.90;;;;;;4947378;28;20076;-73
2024/01/01 11:08:00;;;;;;;16.00;2.47;;;9.70;99.90;;;;;;4946834;28;20080;-71
2024/01/01 11:10:43;;;;;;;14.65;2.42;;;9.70;99.90;;;;;;4945250;28;20050;-74
2024/01/01 11:13:13;;;;;;;15.88;2.85;;;9.70;99.90;;;;;;4935742;28;20031;-74
2024/01/01 11:15:43;;;;;;;13.45;2.42;;;9.70;99.90;;;;;;4948937;28;20031;-74
2024/01/01 11:18:16;;;;;;;18.00;2.45;;;9.70;99.90;;;;;;4944676;28;20081;-74
2024/01/01 11:20:55;;;;;;;14.45;1.95;;;9.70;99.90;;;;;;4948340;28;20487;-74
2024/01/01 11:23:46;;;;;;;17.25;2.40;;;9.70;99.90;;;;;;4948776;28;20030;-74
2024/01/01 11:26:33;;;;;;;14.35;2.67;;;9.70;99.90;;;;;;4937034;28;20055;-74
2024/01/01 11:29:02;;;;;;;17.67;2.83;;;9.60;99.90;;;;;;4946245;28;20037;-74
2024/01/01 11:31:30;;;;;;;14.52;2.40;;;9.60;99.90;;;;;;4944715;28;20100;-73
2024/01/01 11:34:08;;;;;;;16.67;2.75;;;9.50;99.90;;;;;;4949371;28;20031;-73
2024/01/01 11:36:35;;;;;;;16.15;2.40;;;9.50;99.90;;;;;;4950202;28;20031;-73
2024/01/01 11:39:02;;;;;;;17.75;2.80;;;9.40;99.90;;;;;;4948747;28;20031;-70
2024/01/01 11:41:30;;;;;;;19.58;2.50;;;9.40;99.90;;;;;;4950624;28;20027;-71
2024/01/01 11:44:11;;;;;;;15.63;3.05;;;9.30;99.90;;;;;;4947332;28;20042;-72
2024/01/01 11:46:37;;;;;;;16.20;2.88;;;9.30;99.90;;;;;;4945463;28;20656;-72
2024/01/01 11:49:04;;;;;;;17.17;2.75;;;9.30;99.90;;;;;;4946418;28;20039;-72
2024/01/01 11:51:32;;;;;;;19.58;2.75;;;9.20;99.90;;;;;;4949254;28;20433;-72
2024/01/01 11:54:05;;;;;;;18.15;3.25;;;9.30;99.90;;;;;;4946972;28;20015;-72
2024/01/01 11:56:32;;;;;;;18.55;3.17;;;9.30;99.90;;;;;;4950635;28;20034;-72
2024/01/01 11:58:58;;;;;;;24.60;3.92;;;9.30;99.90;;;;;;4951023;28;20015;-72
2024/01/01 12:01:23;;;;;;;24.42;2.90;;;9.30;99.90;;;;;;4949714;28;20039;-72
2024/01/01 12:03:50;;;;;;;25.35;3.60;;;9.40;99.90;;;;;;4949822;28;20106;-72
2024/01/01 12:06:16;;;;;;;16.33;3.33;;;9.40;99.90;;;;;;4947522;28;20024;-72
2024/01/01 12:08:42;;;;;;;19.67;3.00;;;9.40;99.90;;;;;;4944442;28;20032;-72
2024/01/01 12:11:07;;;;;;;17.92;2.70;;;9.40;99.90;;;;;;4949471;28;20082;-72
2024/01/01 12:13:33;;;;;;;20.42;2.75;;;9.40;99.90;;;;;;4944216;28;20622;-72
2024/01/01 12:16:16;;;;;;;19.52;2.80;;;9.40;99.90;;;;;;4958547;28;20023;-72
2024/01/01 12:18:41;;;;;;;23.83;3.08;;;9.30;99.90;;;;;;4942626;28;20838;-72
2024/01/01 12:21:07;;;;;;;20.92;2.38;;;9.30;99.90;;;;;;4951013;28;20015;-73
2024/01/01 12:23:33;;;;;;;21.83;3.40;;;9.40;99.90;;;;;;4951060;28;20015;-73
2024/01/01 12:26:04;;;;;;;18.83;3.03;;;9.40;99.90;;;;;;4942530;28;20019;-72
2024/01/01 12:28:30;;;;;;;22.27;2.83;;;9.40;99.90;;;;;;4948805;28;20019;-72
2024/01/01 12:30:59;;;;;;;17.85;2.90;;;9.40;99.90;;;;;;4947749;28;20135;-72
2024/01/01 12:33:25;;;;;;;17.85;3.33;;;9.30;99.90;;;;;;4949650;28;20038;-73
2024/01/01 12:35:50;;;;;;;16.13;2.90;;;9.30;99.90;;;;;;4946901;28;20024;-72
2024/01/01 12:38:16;;;;;;;21.90;3.40;;;9.30;99.90;;;;;;4950627;28;20070;-72
2024/01/01 12:40:42;;;;;;;17.42;2.95;;;9.20;99.90;;;;;;4951680;28;20031;-72
2024/01/01 12:43:08;;;;;;;21.63;3.47;;;9.20;99.90;;;;;;4947088;28;20108;-72